Time;durP1;ratioP1;P1;durP2;ratioP2;P2;SDS_P1;SDS_P2;PMS_P1;PMS_P2;Temp;Humidity;BMP_temperature;BMP_pressure;BME280_temperature;BME280_humidity;BME280_pressure;Samples;Min_cycle;Max_cycle;Signal;HPM_P1;HPM_P2
2023/09/06 00:00:42;;;;;;;3.15;1.77;;;23.60;99.90;;;;;;4149222;28;20185;-86
2023/09/06 00:02:43;;;;;;;2.75;1.55;;;23.60;99.90;;;;;;4166675;28;20693;-92
2023/09/06 00:04:45;;;;;;;2.47;1.45;;;23.60;99.90;;;;;;4148684;28;20184;-90
2023/09/06 00:06:45;;;;;;;4.20;1.83;;;23.50;99.90;;;;;;4149088;28;20184;-87
2023/09/06 00:08:46;;;;;;;4.18;1.63;;;23.50;99.90;;;;;;4148648;28;20232;-87
2023/09/06 00:10:47;;;;;;;2.80;1.42;;;23.50;99.90;;;;;;4132467;28;20240;-87
2023/09/06 00:12:48;;;;;;;3.80;1.88;;;23.50;99.90;;;;;;4131924;28;20240;-87
2023/09/06 00:14:49;;;;;;;2.15;1.38;;;23.40;99.90;;;;;;4132417;28;20178;-87
2023/09/06 00:16:50;;;;;;;2.47;1.42;;;23.40;99.90;;;;;;4148729;28;20574;-87
2023/09/06 00:18:50;;;;;;;3.53;1.38;;;23.40;99.90;;;;;;4148355;28;20264;-86
2023/09/06 00:20:53;;;;;;;2.13;1.50;;;23.30;99.90;;;;;;4132286;28;20198;-89
2023/09/06 00:22:59;;;;;;;4.78;1.48;;;23.30;99.90;;;;;;4132207;28;20197;-87
2023/09/06 00:25:00;;;;;;;3.22;1.73;;;23.10;99.90;;;;;;4148763;28;20185;-92
2023/09/06 00:27:04;;;;;;;3.05;1.70;;;23.10;99.90;;;;;;4132415;28;20186;-88
2023/09/06 00:29:08;;;;;;;1.73;1.20;;;23.00;99.90;;;;;;4147960;28;20185;-92
2023/09/06 00:31:09;;;;;;;4.15;1.70;;;23.00;99.90;;;;;;4148317;28;20627;-88
2023/09/06 00:33:09;;;;;;;3.72;1.42;;;23.00;99.90;;;;;;4148448;28;20668;-87
2023/09/06 00:35:11;;;;;;;2.00;1.50;;;23.00;99.90;;;;;;4148277;28;20187;-88
2023/09/06 00:37:11;;;;;;;2.28;1.30;;;22.90;99.90;;;;;;4148219;28;20189;-87
2023/09/06 00:39:12;;;;;;;2.78;1.58;;;22.90;99.90;;;;;;4132013;28;20193;-86
2023/09/06 00:41:13;;;;;;;3.20;1.73;;;22.90;99.90;;;;;;4148297;28;20184;-89
2023/09/06 00:43:14;;;;;;;1.45;1.13;;;23.00;99.90;;;;;;4131856;28;20572;-87
2023/09/06 00:45:15;;;;;;;3.05;1.90;;;23.10;99.90;;;;;;4148285;28;20179;-87
2023/09/06 00:47:16;;;;;;;4.80;1.70;;;23.10;99.90;;;;;;4132413;28;20192;-87
2023/09/06 00:49:18;;;;;;;3.80;1.75;;;23.10;99.90;;;;;;4132204;28;20189;-90
2023/09/06 00:51:19;;;;;;;6.53;1.60;;;23.20;99.90;;;;;;4148175;28;20256;-92
2023/09/06 00:53:21;;;;;;;3.35;1.50;;;23.10;99.90;;;;;;4131821;28;20204;-92
2023/09/06 00:55:23;;;;;;;2.72;1.10;;;23.00;99.90;;;;;;4147919;28;20184;-95
2023/09/06 00:57:23;;;;;;;1.90;1.10;;;23.10;99.90;;;;;;4147733;28;20271;-90
2023/09/06 00:59:26;;;;;;;3.83;1.30;;;23.10;99.90;;;;;;4148035;28;20184;-87
2023/09/06 01:01:28;;;;;;;1.13;0.85;;;23.00;99.90;;;;;;4147712;28;20188;-87
2023/09/06 01:03:28;;;;;;;6.35;1.30;;;23.00;99.90;;;;;;4147852;28;20208;-90
2023/09/06 01:05:36;;;;;;;2.40;1.23;;;22.90;99.90;;;;;;4131602;28;20193;-88
2023/09/06 01:07:38;;;;;;;2.05;1.20;;;22.90;99.90;;;;;;4148101;28;20262;-87
2023/09/06 01:09:39;;;;;;;2.05;1.08;;;23.00;99.90;;;;;;4147423;28;20189;-87
2023/09/06 01:11:40;;;;;;;2.45;1.38;;;23.00;99.90;;;;;;4147322;28;20239;-88
2023/09/06 01:13:41;;;;;;;1.20;1.00;;;23.00;99.90;;;;;;4147508;28;20275;-87
2023/09/06 01:15:44;;;;;;;1.55;0.88;;;23.00;99.90;;;;;;4147882;28;20192;-87
2023/09/06 01:17:46;;;;;;;1.50;1.00;;;23.00;99.90;;;;;;4148152;28;20173;-88
2023/09/06 01:19:53;;;;;;;1.80;0.90;;;22.90;99.90;;;;;;4147665;28;20275;-89
2023/09/06 01:22:02;;;;;;;3.10;1.27;;;22.90;99.90;;;;;;4147646;28;20185;-89
2023/09/06 01:24:05;;;;;;;2.22;1.25;;;22.90;99.90;;;;;;4147260;28;20207;-91
2023/09/06 01:26:07;;;;;;;1.88;1.20;;;22.90;99.90;;;;;;4163736;28;20207;-87
2023/09/06 01:28:08;;;;;;;3.17;1.33;;;22.80;99.90;;;;;;4147860;28;20268;-88
2023/09/06 01:30:09;;;;;;;2.05;1.20;;;22.80;99.90;;;;;;4131272;28;20181;-92
2023/09/06 01:32:10;;;;;;;1.48;1.10;;;22.80;99.90;;;;;;4131282;28;20233;-87
2023/09/06 01:34:11;;;;;;;3.13;1.63;;;22.80;99.90;;;;;;4131427;28;20671;-87
2023/09/06 01:36:12;;;;;;;3.88;1.50;;;22.70;99.90;;;;;;4150251;23;20208;-83
2023/09/06 01:38:15;;;;;;;2.65;1.20;;;22.70;99.90;;;;;;4131733;28;20189;-83
2023/09/06 01:40:19;;;;;;;4.03;1.20;;;22.70;99.90;;;;;;4130697;28;20647;-83
2023/09/06 01:42:22;;;;;;;3.53;1.40;;;22.60;99.90;;;;;;4147492;28;20570;-84
2023/09/06 01:44:23;;;;;;;1.70;1.20;;;22.60;99.90;;;;;;4147780;28;20185;-84
2023/09/06 01:46:23;;;;;;;1.55;1.45;;;22.60;99.90;;;;;;4165037;28;20267;-84
2023/09/06 01:48:24;;;;;;;2.33;1.33;;;22.60;99.90;;;;;;4147509;28;20753;-84
2023/09/06 01:50:25;;;;;;;2.17;1.23;;;22.60;99.90;;;;;;4147381;28;20180;-83
2023/09/06 01:52:26;;;;;;;2.83;1.42;;;22.60;99.90;;;;;;4147520;28;20667;-92
2023/09/06 01:54:26;;;;;;;5.25;1.50;;;22.50;99.90;;;;;;4147753;28;20176;-84
2023/09/06 01:56:27;;;;;;;1.60;1.15;;;22.50;99.90;;;;;;4165083;28;20242;-84
2023/09/06 01:58:32;;;;;;;3.40;1.40;;;22.50;99.90;;;;;;4147311;28;20238;-84
2023/09/06 02:00:35;;;;;;;4.03;1.73;;;22.30;99.90;;;;;;4164172;28;20176;-84
2023/09/06 02:02:36;;;;;;;2.42;1.23;;;22.30;99.90;;;;;;4165081;28;20204;-84
2023/09/06 02:04:38;;;;;;;2.25;1.30;;;22.20;99.90;;;;;;4165031;28;20676;-83
2023/09/06 02:06:38;;;;;;;4.50;1.38;;;22.20;99.90;;;;;;4164898;28;20654;-84
2023/09/06 02:08:39;;;;;;;3.95;1.60;;;22.20;99.90;;;;;;4147532;28;20185;-84
2023/09/06 02:10:40;;;;;;;4.13;1.45;;;22.20;99.90;;;;;;4131186;28;20182;-83
2023/09/06 02:12:41;;;;;;;2.55;1.42;;;22.00;99.90;;;;;;4147414;28;20770;-84
2023/09/06 02:14:42;;;;;;;2.17;1.20;;;22.00;99.90;;;;;;4147529;28;20189;-84
2023/09/06 02:16:45;;;;;;;4.63;1.38;;;22.10;99.90;;;;;;4147455;28;20377;-84
2023/09/06 02:18:46;;;;;;;3.53;1.08;;;22.10;99.90;;;;;;4163957;28;20263;-84
2023/09/06 02:20:49;;;;;;;1.90;1.10;;;22.10;99.90;;;;;;4131363;28;20244;-84
2023/09/06 02:22:51;;;;;;;1.73;1.15;;;22.10;99.90;;;;;;4147587;28;20200;-84
2023/09/06 02:24:53;;;;;;;2.13;1.30;;;22.10;99.90;;;;;;4131102;28;20185;-83
2023/09/06 02:26:54;;;;;;;3.45;1.35;;;22.10;99.90;;;;;;4147368;28;20235;-85
2023/09/06 02:28:55;;;;;;;3.40;1.52;;;22.00;99.90;;;;;;4130960;28;20174;-92
2023/09/06 02:30:55;;;;;;;2.20;1.25;;;22.00;99.90;;;;;;4147117;28;20219;-92
2023/09/06 02:32:56;;;;;;;4.15;1.90;;;22.00;99.90;;;;;;4164699;28;20203;-91
2023/09/06 02:34:57;;;;;;;1.73;1.23;;;21.80;99.90;;;;;;4164885;28;20218;-92
2023/09/06 02:36:58;;;;;;;2.88;1.67;;;21.60;99.90;;;;;;4131101;28;20212;-84
2023/09/06 02:38:59;;;;;;;2.42;1.60;;;21.70;99.90;;;;;;4147203;28;20547;-84
2023/09/06 02:41:00;;;;;;;3.72;1.50;;;21.90;99.90;;;;;;4131084;28;20194;-88
2023/09/06 02:43:04;;;;;;;2.17;1.25;;;21.80;99.90;;;;;;4147146;28;20200;-84
2023/09/06 02:45:09;;;;;;;3.15;1.58;;;21.80;99.90;;;;;;4164721;28;20283;-84
2023/09/06 02:47:11;;;;;;;1.50;1.00;;;21.70;99.90;;;;;;4164518;28;20180;-92
2023/09/06 02:49:12;;;;;;;2.80;1.40;;;21.70;99.90;;;;;;4131047;28;20189;-84
2023/09/06 02:51:15;;;;;;;2.28;1.40;;;21.70;99.90;;;;;;4147113;28;20177;-84
2023/09/06 02:53:22;;;;;;;1.80;1.25;;;21.60;99.90;;;;;;4148844;28;20706;-84
2023/09/06 02:55:23;;;;;;;1.95;1.23;;;21.60;99.90;;;;;;4149967;28;20181;-87
2023/09/06 02:57:30;;;;;;;4.00;1.40;;;21.60;99.90;;;;;;4133698;28;20600;-83
2023/09/06 02:59:31;;;;;;;3.22;1.40;;;21.60;99.90;;;;;;4150346;28;20260;-92
2023/09/06 03:01:31;;;;;;;3.17;1.70;;;21.60;99.90;;;;;;4168134;28;20529;-92
2023/09/06 03:03:33;;;;;;;2.45;1.25;;;21.50;99.90;;;;;;4150273;28;20280;-87
2023/09/06 03:05:41;;;;;;;2.42;1.50;;;21.60;99.90;;;;;;4150173;28;20181;-84
2023/09/06 03:07:43;;;;;;;2.97;1.38;;;21.60;99.90;;;;;;4133765;28;20208;-84
2023/09/06 03:09:44;;;;;;;11.18;1.48;;;21.50;99.90;;;;;;4167396;28;20179;-85
2023/09/06 03:11:47;;;;;;;4.53;1.90;;;21.40;99.90;;;;;;4149503;28;20208;-92
2023/09/06 03:13:47;;;;;;;3.95;1.33;;;21.30;99.90;;;;;;4149845;28;20263;-93
2023/09/06 03:15:51;;;;;;;4.40;1.20;;;21.20;99.90;;;;;;4167406;28;20172;-92
2023/09/06 03:17:53;;;;;;;2.58;1.50;;;21.20;99.90;;;;;;4149897;28;20532;-93
2023/09/06 03:19:57;;;;;;;2.90;1.48;;;21.20;99.90;;;;;;4150091;28;20528;-92
2023/09/06 03:21:57;;;;;;;2.22;1.20;;;21.20;99.90;;;;;;4150125;28;20176;-93
2023/09/06 03:23:59;;;;;;;1.92;1.25;;;21.20;99.90;;;;;;4133387;28;20188;-90
2023/09/06 03:26:00;;;;;;;2.88;0.98;;;21.20;99.90;;;;;;4133564;28;20185;-93
2023/09/06 03:28:08;;;;;;;1.33;0.90;;;21.20;99.90;;;;;;4149752;28;20204;-84
2023/09/06 03:30:15;;;;;;;1.65;1.20;;;21.20;99.90;;;;;;4133595;28;20181;-84
2023/09/06 03:32:18;;;;;;;2.78;1.52;;;21.20;99.90;;;;;;4133736;28;20224;-94
2023/09/06 03:34:19;;;;;;;2.50;1.40;;;21.20;99.90;;;;;;4149472;28;20659;-84
2023/09/06 03:36:24;;;;;;;4.00;1.10;;;21.10;99.90;;;;;;4149695;28;20200;-93
2023/09/06 03:38:25;;;;;;;1.73;1.15;;;21.00;99.90;;;;;;4133457;28;20193;-90
2023/09/06 03:40:34;;;;;;;1.65;1.17;;;21.00;99.90;;;;;;4149841;28;20177;-92
2023/09/06 03:42:35;;;;;;;1.90;1.08;;;20.90;99.90;;;;;;4133045;28;20200;-84
2023/09/06 03:44:38;;;;;;;2.47;1.25;;;20.90;99.90;;;;;;4132955;28;20745;-86
2023/09/06 03:46:41;;;;;;;2.42;1.35;;;20.90;99.90;;;;;;4149528;28;20188;-83
2023/09/06 03:48:43;;;;;;;3.00;1.65;;;20.90;99.90;;;;;;4166960;28;20187;-84
2023/09/06 03:50:43;;;;;;;1.58;1.17;;;20.90;99.90;;;;;;4166980;28;20204;-92
2023/09/06 03:52:44;;;;;;;2.67;1.48;;;20.90;99.90;;;;;;4133027;28;20229;-84
2023/09/06 03:54:45;;;;;;;2.05;1.20;;;20.90;99.90;;;;;;4133065;28;20635;-83
2023/09/06 03:56:45;;;;;;;1.98;1.20;;;20.90;99.90;;;;;;4132768;28;20268;-84
2023/09/06 03:58:47;;;;;;;1.20;1.00;;;20.90;99.90;;;;;;4166812;28;20172;-92
2023/09/06 04:00:48;;;;;;;3.63;1.70;;;20.90;99.90;;;;;;4149052;28;20192;-93
2023/09/06 04:02:58;;;;;;;2.83;1.25;;;20.90;99.90;;;;;;4134171;28;20205;-83
2023/09/06 04:04:58;;;;;;;2.47;1.20;;;20.90;99.90;;;;;;4149183;28;20246;-84
2023/09/06 04:07:02;;;;;;;1.92;1.20;;;20.90;99.90;;;;;;4133079;28;20177;-83
2023/09/06 04:09:12;;;;;;;1.88;0.98;;;20.90;99.90;;;;;;4149260;28;20193;-92
2023/09/06 04:11:13;;;;;;;2.50;1.27;;;21.00;99.90;;;;;;4149268;28;20248;-84
2023/09/06 04:13:14;;;;;;;4.50;1.30;;;20.90;99.90;;;;;;4148750;28;20216;-84
2023/09/06 04:15:15;;;;;;;2.50;1.10;;;21.00;99.90;;;;;;4132899;28;20170;-86
2023/09/06 04:17:17;;;;;;;2.63;1.48;;;21.00;99.90;;;;;;4148962;28;20207;-83
2023/09/06 04:19:18;;;;;;;3.53;1.50;;;20.90;99.90;;;;;;4132715;28;20178;-84
2023/09/06 04:21:20;;;;;;;2.25;1.10;;;20.90;99.90;;;;;;4148675;28;20184;-83
2023/09/06 04:23:20;;;;;;;2.50;1.20;;;20.80;99.90;;;;;;4132698;28;20198;-84
2023/09/06 04:25:28;;;;;;;1.85;1.30;;;20.90;99.90;;;;;;4149117;28;20184;-88
2023/09/06 04:27:29;;;;;;;1.98;1.02;;;20.80;99.90;;;;;;4148859;28;20188;-90
2023/09/06 04:29:30;;;;;;;2.55;1.35;;;20.80;99.90;;;;;;4166320;28;20180;-84
2023/09/06 04:31:32;;;;;;;1.42;0.88;;;20.90;99.90;;;;;;4148877;28;20220;-84
2023/09/06 04:33:33;;;;;;;2.30;1.15;;;20.90;99.90;;;;;;4148938;28;20193;-89
2023/09/06 04:35:44;;;;;;;5.15;2.10;;;21.10;99.90;;;;;;4148805;28;20506;-83
2023/09/06 04:37:46;;;;;;;3.47;1.48;;;21.50;99.90;;;;;;4132450;28;20304;-84
2023/09/06 04:39:47;;;;;;;3.55;1.52;;;21.70;99.90;;;;;;4132410;28;20600;-83
2023/09/06 04:41:48;;;;;;;5.72;1.88;;;21.90;99.90;;;;;;4132336;28;20182;-83
2023/09/06 04:43:48;;;;;;;5.03;1.48;;;22.10;99.90;;;;;;4148605;28;20185;-84
2023/09/06 04:45:50;;;;;;;3.03;1.65;;;22.10;99.90;;;;;;4148546;28;20177;-84
2023/09/06 04:47:52;;;;;;;3.40;1.67;;;22.10;99.90;;;;;;4132613;28;20188;-83
2023/09/06 04:49:53;;;;;;;2.50;0.93;;;21.80;99.90;;;;;;4132400;28;20182;-83
2023/09/06 04:51:56;;;;;;;2.60;1.58;;;21.50;99.90;;;;;;4148317;28;20352;-84
2023/09/06 04:53:56;;;;;;;1.98;1.15;;;21.10;99.90;;;;;;4148732;28;20194;-85
2023/09/06 04:56:05;;;;;;;2.60;1.40;;;20.90;99.90;;;;;;4148574;28;20177;-91
2023/09/06 04:58:33;;;;;;;3.80;1.42;;;20.60;99.90;;;;;;4148997;28;20184;-83
2023/09/06 05:00:43;;;;;;;1.65;0.90;;;20.40;99.90;;;;;;4132288;28;20177;-90
2023/09/06 05:02:47;;;;;;;2.45;1.40;;;20.40;99.90;;;;;;4132170;28;20568;-84
2023/09/06 05:04:47;;;;;;;3.10;1.70;;;20.60;99.90;;;;;;4164665;28;20180;-83
2023/09/06 05:06:48;;;;;;;3.00;1.33;;;20.70;99.90;;;;;;4165897;28;20179;-93
2023/09/06 05:08:49;;;;;;;1.67;1.02;;;20.80;99.90;;;;;;4165835;28;20685;-83
2023/09/06 05:10:53;;;;;;;1.92;1.27;;;20.80;99.90;;;;;;4148297;28;20180;-84
2023/09/06 05:12:55;;;;;;;3.13;1.83;;;20.90;99.90;;;;;;4131978;28;20276;-84
2023/09/06 05:14:56;;;;;;;2.50;1.27;;;20.80;99.90;;;;;;4164943;28;20658;-84
2023/09/06 05:16:57;;;;;;;2.08;1.20;;;20.80;99.90;;;;;;4148132;28;20181;-84
2023/09/06 05:18:58;;;;;;;1.60;1.10;;;20.70;99.90;;;;;;4148060;28;20226;-84
2023/09/06 05:21:04;;;;;;;4.18;0.90;;;20.60;99.90;;;;;;4132168;28;20189;-94
2023/09/06 05:23:12;;;;;;;1.67;1.08;;;20.50;99.90;;;;;;4131825;28;20228;-87
2023/09/06 05:25:13;;;;;;;2.90;1.38;;;20.50;99.90;;;;;;4131571;28;20185;-83
2023/09/06 05:27:17;;;;;;;1.55;1.20;;;20.50;99.90;;;;;;4131875;28;20186;-85
2023/09/06 05:29:18;;;;;;;2.08;1.25;;;20.50;99.90;;;;;;4131595;28;20189;-82
2023/09/06 05:31:19;;;;;;;2.30;1.02;;;20.70;99.90;;;;;;4148045;28;20177;-83
2023/09/06 05:33:21;;;;;;;2.47;1.20;;;20.70;99.90;;;;;;4147811;28;20295;-83
2023/09/06 05:35:25;;;;;;;1.42;0.90;;;20.70;99.90;;;;;;4147604;28;20263;-83
2023/09/06 05:37:26;;;;;;;2.75;1.10;;;20.70;99.90;;;;;;4147920;28;20200;-92
2023/09/06 05:39:27;;;;;;;2.65;1.08;;;20.70;99.90;;;;;;4147890;28;20183;-94
2023/09/06 05:41:28;;;;;;;3.05;1.05;;;20.70;99.90;;;;;;4148031;28;20188;-88
2023/09/06 05:43:29;;;;;;;2.38;1.35;;;20.70;99.90;;;;;;4131595;28;20289;-93
2023/09/06 05:45:30;;;;;;;1.90;1.30;;;20.70;99.90;;;;;;4131519;28;20271;-83
2023/09/06 05:47:33;;;;;;;2.10;1.23;;;20.80;99.90;;;;;;4147952;28;20192;-89
2023/09/06 05:49:35;;;;;;;1.75;1.17;;;20.80;99.90;;;;;;4164093;28;20235;-83
2023/09/06 05:51:36;;;;;;;10.75;1.92;;;20.80;99.90;;;;;;4131572;28;20737;-84
2023/09/06 05:53:38;;;;;;;3.53;1.33;;;20.80;99.90;;;;;;4147634;28;20228;-93
2023/09/06 05:55:40;;;;;;;1.85;1.27;;;20.80;99.90;;;;;;4148020;28;20219;-84
2023/09/06 05:57:42;;;;;;;2.25;1.23;;;21.00;99.90;;;;;;4147653;28;20185;-85
2023/09/06 05:59:43;;;;;;;1.92;1.20;;;21.00;99.90;;;;;;4147736;28;20176;-84
2023/09/06 06:01:43;;;;;;;1.60;1.08;;;20.90;99.90;;;;;;4147412;28;20173;-83
2023/09/06 06:03:45;;;;;;;2.72;1.45;;;20.90;99.90;;;;;;4131307;28;20181;-83
2023/09/06 06:05:45;;;;;;;2.20;1.08;;;20.80;99.90;;;;;;4147422;28;20187;-84
2023/09/06 06:07:47;;;;;;;1.75;1.10;;;20.80;99.90;;;;;;4131126;28;20586;-84
2023/09/06 06:09:48;;;;;;;2.97;1.35;;;20.80;99.90;;;;;;4147480;28;20204;-83
2023/09/06 06:11:49;;;;;;;2.10;0.85;;;21.10;99.90;;;;;;4147166;28;20224;-84
2023/09/06 06:13:51;;;;;;;1.70;1.10;;;21.70;99.90;;;;;;4147319;28;20281;-84
2023/09/06 06:15:51;;;;;;;1.38;0.80;;;22.00;99.90;;;;;;4163986;28;20186;-84
2023/09/06 06:17:52;;;;;;;2.30;1.38;;;22.00;99.90;;;;;;4147613;28;20212;-83
2023/09/06 06:19:53;;;;;;;2.20;1.13;;;22.10;99.90;;;;;;4164979;28;20672;-83
2023/09/06 06:21:54;;;;;;;2.80;1.15;;;22.10;99.90;;;;;;4131069;28;20247;-84
2023/09/06 06:23:55;;;;;;;2.40;1.30;;;22.20;99.90;;;;;;4147534;28;20717;-83
2023/09/06 06:25:56;;;;;;;1.75;1.02;;;22.10;99.90;;;;;;4164946;28;20535;-83
2023/09/06 06:27:57;;;;;;;1.70;1.27;;;22.00;99.90;;;;;;4134370;28;20178;-83
2023/09/06 06:29:57;;;;;;;2.53;1.00;;;21.90;99.90;;;;;;4168380;28;20183;-83
2023/09/06 06:31:58;;;;;;;4.60;1.20;;;21.80;99.90;;;;;;4150474;28;20220;-83
2023/09/06 06:33:59;;;;;;;2.70;1.17;;;21.70;99.90;;;;;;4150612;28;20186;-83
2023/09/06 06:36:00;;;;;;;1.42;0.80;;;21.70;99.90;;;;;;4168124;28;20168;-83
2023/09/06 06:38:02;;;;;;;2.60;0.90;;;21.80;99.90;;;;;;4133951;28;20572;-83
2023/09/06 06:40:05;;;;;;;1.08;0.80;;;21.80;99.90;;;;;;4134080;28;20181;-84
2023/09/06 06:42:06;;;;;;;1.35;0.80;;;21.90;99.90;;;;;;4150413;28;20292;-83
2023/09/06 06:44:09;;;;;;;4.45;1.38;;;21.90;99.90;;;;;;4134233;28;20551;-90
2023/09/06 06:46:28;;;;;;;1.65;0.88;;;22.00;99.90;;;;;;4150414;28;20196;-84
2023/09/06 06:48:28;;;;;;;1.95;0.80;;;22.10;99.90;;;;;;4150557;28;20260;-84
2023/09/06 06:50:29;;;;;;;1.90;1.00;;;22.10;99.90;;;;;;4167778;28;20185;-84
2023/09/06 06:52:36;;;;;;;1.55;1.00;;;22.40;99.90;;;;;;4149983;28;20295;-84
2023/09/06 06:54:40;;;;;;;2.17;0.90;;;22.60;99.90;;;;;;4134148;28;20177;-84
2023/09/06 06:56:41;;;;;;;1.60;1.02;;;22.90;99.90;;;;;;4150222;28;20192;-84
2023/09/06 06:58:42;;;;;;;1.35;0.98;;;22.90;99.90;;;;;;4134061;28;20276;-84
2023/09/06 07:00:43;;;;;;;6.88;1.20;;;23.20;99.90;;;;;;4150189;28;20189;-94
2023/09/06 07:02:45;;;;;;;2.53;1.20;;;23.60;99.90;;;;;;4167780;28;20192;-83
2023/09/06 07:04:46;;;;;;;3.50;1.58;;;24.10;99.90;;;;;;4133956;28;20241;-83
2023/09/06 07:06:46;;;;;;;1.58;1.20;;;24.10;99.90;;;;;;4134122;28;20197;-83
2023/09/06 07:08:47;;;;;;;4.50;1.50;;;24.20;99.90;;;;;;4150082;28;20544;-83
2023/09/06 07:10:48;;;;;;;1.73;1.30;;;24.60;99.90;;;;;;4149986;28;20651;-83
2023/09/06 07:12:48;;;;;;;2.17;1.10;;;25.70;99.90;;;;;;4133589;28;20222;-84
2023/09/06 07:14:51;;;;;;;2.00;1.00;;;27.20;99.90;;;;;;4149774;28;20185;-84
2023/09/06 07:16:51;;;;;;;2.38;1.10;;;28.40;99.90;;;;;;4133659;28;20217;-85
2023/09/06 07:18:52;;;;;;;1.17;1.00;;;29.90;99.90;;;;;;4149669;28;20189;-84
2023/09/06 07:20:53;;;;;;;2.10;1.02;;;30.80;99.90;;;;;;4133741;28;20182;-91
2023/09/06 07:22:53;;;;;;;1.10;0.77;;;31.90;99.90;;;;;;4149820;28;20200;-85
2023/09/06 07:24:54;;;;;;;2.38;0.85;;;32.90;99.90;;;;;;4149709;28;20263;-89
2023/09/06 07:26:55;;;;;;;2.53;1.23;;;33.50;99.90;;;;;;4167493;28;20176;-93
2023/09/06 07:28:56;;;;;;;1.40;1.25;;;34.30;99.90;;;;;;4149778;28;20274;-88
2023/09/06 07:30:56;;;;;;;2.28;1.42;;;34.50;99.90;;;;;;4149656;28;20698;-84
2023/09/06 07:32:57;;;;;;;1.80;1.30;;;34.90;99.90;;;;;;4149118;28;20220;-82
2023/09/06 07:34:58;;;;;;;4.10;1.75;;;35.00;99.90;;;;;;4133475;28;20188;-84
2023/09/06 07:36:59;;;;;;;1.77;1.25;;;34.90;99.90;;;;;;4150172;28;20193;-85
2023/09/06 07:38:59;;;;;;;4.68;1.33;;;34.40;99.90;;;;;;4148579;28;20188;-90
2023/09/06 07:41:05;;;;;;;2.95;1.20;;;35.00;99.90;;;;;;4149657;28;20196;-83
2023/09/06 07:43:06;;;;;;;2.33;1.40;;;35.10;99.90;;;;;;4149753;28;20254;-83
2023/09/06 07:45:07;;;;;;;3.17;1.30;;;35.40;99.90;;;;;;4133516;28;20181;-86
2023/09/06 07:47:08;;;;;;;3.05;1.25;;;35.20;99.90;;;;;;4149286;28;20223;-82
2023/09/06 07:49:09;;;;;;;2.80;1.20;;;35.50;99.90;;;;;;4149471;28;20184;-82
2023/09/06 07:51:11;;;;;;;1.60;1.33;;;35.80;99.90;;;;;;4149472;28;20626;-92
2023/09/06 07:53:11;;;;;;;2.40;1.73;;;35.90;99.90;;;;;;4166746;28;20317;-84
2023/09/06 07:55:15;;;;;;;3.38;1.60;;;35.80;99.90;;;;;;4132873;28;20260;-90
2023/09/06 07:57:16;;;;;;;3.17;1.38;;;35.60;99.90;;;;;;4149308;28;20188;-93
2023/09/06 07:59:21;;;;;;;3.40;1.48;;;35.20;99.90;;;;;;4166865;28;20171;-94
2023/09/06 08:01:22;;;;;;;1.38;1.10;;;33.90;99.90;;;;;;4133270;28;20188;-84
2023/09/06 08:03:23;;;;;;;1.80;1.20;;;33.80;99.90;;;;;;4133047;28;20248;-84
2023/09/06 08:05:24;;;;;;;1.75;1.25;;;33.30;99.90;;;;;;4149374;28;20191;-84
2023/09/06 08:07:25;;;;;;;5.70;1.10;;;33.00;99.90;;;;;;4149391;28;20591;-84
2023/09/06 08:09:25;;;;;;;3.20;1.20;;;33.70;99.90;;;;;;4132843;28;20183;-84
2023/09/06 08:11:26;;;;;;;1.42;0.98;;;33.80;99.90;;;;;;4132913;28;20277;-93
2023/09/06 08:13:27;;;;;;;3.00;1.00;;;34.20;99.90;;;;;;4148804;28;20196;-85
2023/09/06 08:15:28;;;;;;;1.10;1.00;;;34.40;99.90;;;;;;4149139;28;20259;-85
2023/09/06 08:17:29;;;;;;;4.15;1.60;;;34.60;99.90;;;;;;4132931;28;20196;-84
2023/09/06 08:19:30;;;;;;;2.90;1.42;;;34.90;99.90;;;;;;4132904;28;20181;-82
2023/09/06 08:21:31;;;;;;;2.97;1.30;;;34.60;99.90;;;;;;4132584;28;20227;-82
2023/09/06 08:23:31;;;;;;;1.45;1.05;;;35.30;99.90;;;;;;4166148;28;20285;-82
2023/09/06 08:25:34;;;;;;;1.38;1.17;;;35.90;99.90;;;;;;4166460;28;20257;-91
2023/09/06 08:27:35;;;;;;;3.58;1.77;;;36.20;99.90;;;;;;4166167;28;20167;-82
2023/09/06 08:29:35;;;;;;;1.73;1.00;;;35.90;99.90;;;;;;4149096;28;20206;-82
2023/09/06 08:31:36;;;;;;;1.60;1.00;;;36.00;99.90;;;;;;4149253;28;20208;-83
2023/09/06 08:33:37;;;;;;;1.35;0.90;;;35.40;99.90;;;;;;4148583;28;20208;-82
2023/09/06 08:35:38;;;;;;;3.58;0.93;;;35.60;99.90;;;;;;4132626;28;20608;-84
2023/09/06 08:37:39;;;;;;;1.33;0.93;;;35.50;99.90;;;;;;4148763;28;20196;-82
2023/09/06 08:39:40;;;;;;;1.70;1.00;;;35.20;99.90;;;;;;4148561;28;20208;-82
2023/09/06 08:41:45;;;;;;;2.17;1.10;;;34.50;99.90;;;;;;4132384;28;20180;-82
2023/09/06 08:43:46;;;;;;;1.58;1.17;;;34.30;99.90;;;;;;4132119;28;20180;-82
2023/09/06 08:45:48;;;;;;;1.58;0.90;;;34.60;99.90;;;;;;4148787;28;20187;-91
2023/09/06 08:47:50;;;;;;;2.33;1.30;;;34.80;99.90;;;;;;4132510;28;20173;-82
2023/09/06 08:49:53;;;;;;;3.03;1.13;;;35.10;99.90;;;;;;4148437;28;20181;-82
2023/09/06 08:51:55;;;;;;;2.17;1.10;;;34.70;99.90;;;;;;4148111;28;20223;-92
2023/09/06 08:53:56;;;;;;;3.40;1.42;;;35.00;99.90;;;;;;4164854;28;20180;-92
2023/09/06 08:55:57;;;;;;;2.25;0.80;;;34.50;99.90;;;;;;4132208;28;20237;-84
2023/09/06 08:58:01;;;;;;;2.03;0.90;;;34.20;99.90;;;;;;4148356;28;20220;-82
2023/09/06 09:00:03;;;;;;;3.05;1.10;;;35.10;99.90;;;;;;4132154;28;20276;-82
2023/09/06 09:02:04;;;;;;;2.10;1.02;;;35.10;99.90;;;;;;4147928;28;20204;-82
2023/09/06 09:04:05;;;;;;;1.30;0.88;;;35.50;99.90;;;;;;4165860;28;20233;-82
2023/09/06 09:06:09;;;;;;;1.63;0.82;;;35.40;99.90;;;;;;4132056;28;20327;-91
2023/09/06 09:08:09;;;;;;;2.45;1.00;;;35.70;99.90;;;;;;4148220;28;20187;-83
2023/09/06 09:10:13;;;;;;;3.40;1.23;;;36.20;99.90;;;;;;4132241;28;20185;-83
2023/09/06 09:12:14;;;;;;;2.88;0.90;;;36.80;99.90;;;;;;4132180;28;20221;-83
2023/09/06 09:14:24;;;;;;;0.88;0.63;;;36.80;99.90;;;;;;4165995;28;20172;-83
2023/09/06 09:16:24;;;;;;;1.20;0.90;;;36.80;99.90;;;;;;4165690;28;20638;-82
2023/09/06 09:18:28;;;;;;;1.00;0.85;;;36.90;99.90;;;;;;4165853;28;20184;-83
2023/09/06 09:20:34;;;;;;;6.82;0.70;;;37.60;99.90;;;;;;4148162;28;20188;-83
2023/09/06 09:22:35;;;;;;;1.50;1.00;;;37.70;99.90;;;;;;4165670;28;20196;-83
2023/09/06 09:24:36;;;;;;;1.02;0.88;;;37.90;99.90;;;;;;4165557;28;20541;-83
2023/09/06 09:26:41;;;;;;;3.17;1.42;;;37.80;99.90;;;;;;4148247;28;20209;-83
2023/09/06 09:28:42;;;;;;;1.90;1.00;;;37.70;99.90;;;;;;4165544;28;20176;-92
2023/09/06 09:30:46;;;;;;;1.13;0.80;;;38.00;99.90;;;;;;4131587;28;20263;-92
2023/09/06 09:32:46;;;;;;;1.50;0.95;;;38.50;99.90;;;;;;4131568;28;20606;-84
2023/09/06 09:34:49;;;;;;;3.28;1.27;;;38.70;99.90;;;;;;4164125;28;20179;-82
2023/09/06 09:36:51;;;;;;;1.13;0.85;;;38.20;99.90;;;;;;4165347;28;20288;-83
2023/09/06 09:38:52;;;;;;;2.50;1.20;;;37.40;99.90;;;;;;4147553;28;20186;-90
2023/09/06 09:41:06;;;;;;;2.42;0.85;;;37.20;99.90;;;;;;4147710;28;20183;-82
2023/09/06 09:43:07;;;;;;;1.52;1.00;;;36.80;99.90;;;;;;4147541;28;20294;-84
2023/09/06 09:45:10;;;;;;;2.25;1.15;;;37.00;99.90;;;;;;4147855;28;20180;-83
2023/09/06 09:47:14;;;;;;;1.63;1.10;;;36.90;99.90;;;;;;4165181;28;20202;-82
2023/09/06 09:49:17;;;;;;;1.52;1.00;;;36.80;99.90;;;;;;4165116;28;20186;-91
2023/09/06 09:51:19;;;;;;;1.70;1.17;;;36.50;99.90;;;;;;4147557;28;20219;-82
2023/09/06 09:53:24;;;;;;;1.70;0.90;;;35.70;99.90;;;;;;4147340;28;20254;-83
2023/09/06 09:55:31;;;;;;;1.38;1.00;;;35.70;99.90;;;;;;4131031;28;20690;-82
2023/09/06 09:57:34;;;;;;;1.08;0.80;;;36.60;99.90;;;;;;4165001;28;20183;-92
2023/09/06 09:59:42;;;;;;;1.20;0.80;;;36.00;99.90;;;;;;4165119;28;20261;-82
2023/09/06 10:01:43;;;;;;;1.83;0.80;;;36.40;99.90;;;;;;4147079;28;20191;-82
2023/09/06 10:03:45;;;;;;;1.45;1.02;;;36.90;99.90;;;;;;4165123;28;20176;-82
2023/09/06 10:05:47;;;;;;;1.25;0.88;;;36.50;99.90;;;;;;4147427;28;20176;-82
2023/09/06 10:07:48;;;;;;;0.95;0.77;;;36.30;99.90;;;;;;4164837;28;20184;-82
2023/09/06 10:09:50;;;;;;;1.83;0.80;;;35.80;99.90;;;;;;4164978;28;20262;-84
2023/09/06 10:11:51;;;;;;;1.50;0.95;;;34.40;99.90;;;;;;4147520;28;20244;-84
2023/09/06 10:13:53;;;;;;;1.90;0.77;;;33.70;99.90;;;;;;4147519;28;20185;-83
2023/09/06 10:15:56;;;;;;;1.75;1.15;;;33.10;99.90;;;;;;4147577;28;20213;-83
2023/09/06 10:17:57;;;;;;;1.70;1.00;;;32.40;99.90;;;;;;4131313;28;20188;-84
2023/09/06 10:19:58;;;;;;;1.13;1.00;;;31.60;99.90;;;;;;4163731;28;20280;-83
2023/09/06 10:22:01;;;;;;;2.47;1.20;;;31.90;99.90;;;;;;4163778;28;20188;-83
2023/09/06 10:24:03;;;;;;;2.58;1.50;;;32.20;99.90;;;;;;4165008;28;20172;-83
2023/09/06 10:26:03;;;;;;;1.63;1.23;;;32.10;99.90;;;;;;4147146;28;20181;-83
2023/09/06 10:28:04;;;;;;;2.05;1.38;;;31.90;99.90;;;;;;4164657;28;20611;-83
2023/09/06 10:30:07;;;;;;;3.80;1.50;;;31.60;99.90;;;;;;4131111;28;20324;-92
2023/09/06 10:32:07;;;;;;;1.92;1.58;;;31.10;99.90;;;;;;4146991;28;20216;-92
2023/09/06 10:34:11;;;;;;;7.88;1.42;;;31.00;99.90;;;;;;4164864;28;20606;-83
2023/09/06 10:36:13;;;;;;;1.45;1.00;;;30.70;99.90;;;;;;4147548;28;20232;-91